Time;durP1;ratioP1;P1;durP2;ratioP2;P2;SDS_P1;SDS_P2;PMS_P1;PMS_P2;Temp;Humidity;BMP_temperature;BMP_pressure;BME280_temperature;BME280_humidity;BME280_pressure;Samples;Min_cycle;Max_cycle;Signal;HPM_P1;HPM_P2
2023/08/20 00:00:34;;;;;;;29.27;28.20;;;23.40;99.90;;;;;;5052735;28;20641;-66
2023/08/20 00:03:04;;;;;;;25.83;24.92;;;23.40;99.90;;;;;;5051457;28;20210;-69
2023/08/20 00:05:32;;;;;;;24.73;23.83;;;23.40;99.90;;;;;;5051379;28;20208;-65
2023/08/20 00:07:59;;;;;;;23.17;22.38;;;23.40;99.90;;;;;;5051318;28;20234;-65
2023/08/20 00:10:27;;;;;;;22.15;21.33;;;23.40;99.90;;;;;;5052809;28;20234;-66
2023/08/20 00:12:54;;;;;;;15.85;15.30;;;23.40;99.90;;;;;;5053114;28;20203;-64
2023/08/20 00:15:26;;;;;;;13.70;13.20;;;23.40;99.90;;;;;;5035472;28;20292;-67
2023/08/20 00:17:53;;;;;;;15.38;14.77;;;23.50;99.90;;;;;;5032278;28;20231;-67
2023/08/20 00:20:21;;;;;;;17.00;16.40;;;23.40;99.90;;;;;;5023028;28;20193;-66
2023/08/20 00:22:49;;;;;;;19.58;18.85;;;23.40;99.90;;;;;;5025448;28;20229;-66
2023/08/20 00:25:18;;;;;;;18.77;18.10;;;23.30;99.90;;;;;;5029653;28;20200;-65
2023/08/20 00:27:46;;;;;;;22.02;21.15;;;23.30;99.90;;;;;;5025496;28;20285;-65
2023/08/20 00:30:13;;;;;;;17.08;16.45;;;23.20;99.90;;;;;;5020424;28;20614;-67
2023/08/20 00:32:40;;;;;;;18.17;17.50;;;23.20;99.90;;;;;;5024059;28;20558;-65
2023/08/20 00:35:08;;;;;;;17.73;17.05;;;23.20;99.90;;;;;;5020655;28;20205;-67
2023/08/20 00:37:35;;;;;;;18.65;17.98;;;23.20;99.90;;;;;;5022274;28;20228;-66
2023/08/20 00:40:04;;;;;;;19.90;19.17;;;23.20;99.90;;;;;;5019586;28;20210;-67
2023/08/20 00:42:31;;;;;;;28.63;27.58;;;23.10;99.90;;;;;;5027268;28;20205;-65
2023/08/20 00:44:59;;;;;;;20.88;20.13;;;23.10;99.90;;;;;;5029567;28;20216;-68
2023/08/20 00:47:26;;;;;;;14.50;13.95;;;23.20;99.90;;;;;;5030100;28;20220;-67
2023/08/20 00:49:53;;;;;;;17.65;16.98;;;23.20;99.90;;;;;;5032609;28;20224;-65
2023/08/20 00:52:22;;;;;;;16.50;15.95;;;23.20;99.90;;;;;;5033027;28;20209;-65
2023/08/20 00:54:51;;;;;;;16.40;15.82;;;23.30;99.90;;;;;;5030503;28;20227;-65
2023/08/20 00:57:19;;;;;;;14.80;14.30;;;23.30;99.90;;;;;;5031165;28;20590;-68
2023/08/20 00:59:49;;;;;;;16.23;15.65;;;23.20;99.90;;;;;;5033195;28;20197;-67
2023/08/20 01:02:18;;;;;;;24.90;23.95;;;23.20;99.90;;;;;;5033926;28;20223;-67
2023/08/20 01:04:46;;;;;;;24.63;23.73;;;23.20;99.90;;;;;;5033478;28;20212;-65
2023/08/20 01:07:19;;;;;;;20.92;20.10;;;23.10;99.90;;;;;;5031545;28;20201;-66
2023/08/20 01:09:56;;;;;;;32.70;31.42;;;23.00;99.90;;;;;;5014094;28;20226;-67
2023/08/20 01:12:25;;;;;;;26.83;25.83;;;22.90;99.90;;;;;;5014543;28;20231;-65
2023/08/20 01:14:51;;;;;;;31.35;30.15;;;22.80;99.90;;;;;;5017297;28;20200;-65
2023/08/20 01:17:20;;;;;;;32.33;31.13;;;22.80;99.90;;;;;;5015681;28;20209;-69
2023/08/20 01:19:47;;;;;;;33.10;31.90;;;22.80;99.90;;;;;;5018971;28;20247;-68
2023/08/20 01:22:37;;;;;;;27.67;26.70;;;22.70;99.90;;;;;;5016741;28;20213;-66
2023/08/20 01:25:16;;;;;;;24.40;23.52;;;22.80;99.90;;;;;;5012526;28;20224;-66
2023/08/20 01:27:53;;;;;;;19.30;18.58;;;22.80;99.90;;;;;;5017554;28;20225;-66
2023/08/20 01:30:22;;;;;;;23.98;23.13;;;22.70;99.90;;;;;;5008469;28;20228;-66
2023/08/20 01:32:50;;;;;;;26.65;25.67;;;22.70;99.90;;;;;;5012283;28;20209;-67
2023/08/20 01:35:17;;;;;;;27.92;26.92;;;22.80;99.90;;;;;;5012499;28;20220;-66
2023/08/20 01:37:44;;;;;;;20.00;19.27;;;22.80;99.90;;;;;;5011953;28;20241;-65
2023/08/20 01:40:12;;;;;;;17.35;16.73;;;22.80;99.90;;;;;;5011340;28;20208;-66
2023/08/20 01:42:40;;;;;;;16.20;15.60;;;22.90;99.90;;;;;;5012115;28;20210;-68
2023/08/20 01:45:08;;;;;;;28.80;27.80;;;22.90;99.90;;;;;;5012225;28;20331;-65
2023/08/20 01:47:36;;;;;;;17.60;16.98;;;22.90;99.90;;;;;;5010951;28;20237;-65
2023/08/20 01:50:04;;;;;;;14.90;14.40;;;22.90;99.90;;;;;;5012318;28;20492;-66
2023/08/20 01:52:30;;;;;;;17.65;17.02;;;22.90;99.90;;;;;;5012337;28;20205;-65
2023/08/20 01:54:58;;;;;;;24.50;23.65;;;22.90;99.90;;;;;;5015202;28;20209;-65
2023/08/20 01:57:25;;;;;;;21.60;20.80;;;22.90;99.90;;;;;;5014206;28;20256;-68
2023/08/20 01:59:52;;;;;;;19.02;18.30;;;22.90;99.90;;;;;;5011788;28;20671;-65
2023/08/20 02:02:19;;;;;;;21.33;20.52;;;22.80;99.90;;;;;;5011465;28;20201;-67
2023/08/20 02:04:47;;;;;;;23.40;22.60;;;22.80;99.90;;;;;;5015529;28;20204;-67
2023/08/20 02:07:14;;;;;;;22.77;21.95;;;22.70;99.90;;;;;;5031924;28;20209;-66
2023/08/20 02:09:40;;;;;;;23.30;22.45;;;22.60;99.90;;;;;;5030783;28;20275;-66
2023/08/20 02:12:08;;;;;;;27.02;26.08;;;22.50;99.90;;;;;;5022272;28;20214;-66
2023/08/20 02:14:35;;;;;;;22.85;21.98;;;22.50;99.90;;;;;;5039096;28;20208;-65
2023/08/20 02:17:02;;;;;;;32.78;31.63;;;22.50;99.90;;;;;;5029577;28;20241;-65
2023/08/20 02:19:29;;;;;;;32.78;31.58;;;22.40;99.90;;;;;;5029192;28;20227;-65
2023/08/20 02:21:57;;;;;;;30.08;28.98;;;22.30;99.90;;;;;;5032169;28;20209;-68
2023/08/20 02:24:24;;;;;;;26.92;25.95;;;22.40;99.90;;;;;;5032072;28;20205;-68
2023/08/20 02:26:51;;;;;;;29.98;28.88;;;22.40;99.90;;;;;;5032084;28;20205;-65
2023/08/20 02:29:17;;;;;;;27.65;26.65;;;22.30;99.90;;;;;;5031025;28;20224;-66
2023/08/20 02:31:44;;;;;;;25.30;24.42;;;22.20;99.90;;;;;;5031311;28;20208;-64
2023/08/20 02:34:11;;;;;;;28.88;27.85;;;22.20;99.90;;;;;;5030644;28;20211;-68
2023/08/20 02:36:38;;;;;;;32.35;31.20;;;22.20;99.90;;;;;;5030807;28;20578;-68
2023/08/20 02:39:07;;;;;;;30.10;28.95;;;22.10;99.90;;;;;;5081848;22;20231;-65
2023/08/20 02:41:35;;;;;;;35.05;33.78;;;22.10;99.90;;;;;;5070191;28;20199;-64
2023/08/20 02:44:02;;;;;;;35.22;33.95;;;22.10;99.90;;;;;;5062718;28;20199;-66
2023/08/20 02:46:28;;;;;;;33.40;32.22;;;22.10;99.90;;;;;;5059105;28;20203;-64
2023/08/20 02:48:55;;;;;;;41.35;39.83;;;22.10;99.90;;;;;;5069388;28;20226;-65
2023/08/20 02:51:22;;;;;;;33.30;32.00;;;22.10;99.90;;;;;;5078857;28;20223;-65
2023/08/20 02:53:49;;;;;;;31.45;30.35;;;22.10;99.90;;;;;;5078376;28;20217;-65
2023/08/20 02:56:17;;;;;;;34.00;32.75;;;22.20;99.90;;;;;;5072848;28;20290;-66
2023/08/20 02:58:44;;;;;;;50.65;48.40;;;22.20;99.90;;;;;;5067257;28;20211;-65
2023/08/20 03:01:19;;;;;;;34.50;33.22;;;22.10;99.90;;;;;;5068553;28;20199;-65
2023/08/20 03:03:46;;;;;;;85.95;80.32;;;22.10;99.90;;;;;;5040450;28;20204;-66
2023/08/20 03:06:13;;;;;;;28.85;27.80;;;22.10;99.90;;;;;;5033443;28;20303;-64
2023/08/20 03:08:40;;;;;;;42.13;40.55;;;22.10;99.90;;;;;;5033099;28;20232;-66
2023/08/20 03:11:07;;;;;;;21.50;20.75;;;22.20;99.90;;;;;;5031482;28;20568;-64
2023/08/20 03:13:35;;;;;;;34.08;32.85;;;22.20;99.90;;;;;;5030351;28;20208;-65
2023/08/20 03:16:03;;;;;;;24.40;23.55;;;22.30;99.90;;;;;;5030143;28;20236;-66
2023/08/20 03:18:29;;;;;;;25.63;24.70;;;22.30;99.90;;;;;;5030759;28;20244;-66
2023/08/20 03:20:56;;;;;;;22.35;21.58;;;22.30;99.90;;;;;;5028690;28;20207;-65
2023/08/20 03:23:24;;;;;;;20.75;20.05;;;22.40;99.90;;;;;;5029261;28;20216;-66
2023/08/20 03:25:51;;;;;;;20.20;19.50;;;22.40;99.90;;;;;;5030830;28;20637;-63
2023/08/20 03:28:19;;;;;;;19.23;18.48;;;22.40;99.90;;;;;;5040491;28;20805;-64
2023/08/20 03:30:47;;;;;;;21.50;20.70;;;22.40;99.90;;;;;;5049453;28;20230;-65
2023/08/20 03:33:14;;;;;;;20.50;19.77;;;22.50;99.90;;;;;;5050376;28;20228;-65
2023/08/20 03:35:41;;;;;;;21.13;20.38;;;22.40;99.90;;;;;;5037727;28;20559;-63
2023/08/20 03:38:08;;;;;;;26.52;25.52;;;22.40;99.90;;;;;;5029615;28;20232;-64
2023/08/20 03:40:35;;;;;;;19.05;18.35;;;22.40;99.90;;;;;;5030454;28;20201;-65
2023/08/20 03:43:02;;;;;;;20.73;19.95;;;22.30;99.90;;;;;;5034001;28;20223;-65
2023/08/20 03:45:30;;;;;;;16.70;16.10;;;22.40;99.90;;;;;;5034121;28;20295;-64
2023/08/20 03:47:58;;;;;;;18.10;17.48;;;22.40;99.90;;;;;;5031679;28;20347;-63
2023/08/20 03:50:25;;;;;;;19.85;19.13;;;22.40;99.90;;;;;;5029591;28;20224;-64
2023/08/20 03:52:52;;;;;;;25.40;24.50;;;22.40;99.90;;;;;;5030856;28;20611;-64
2023/08/20 03:55:19;;;;;;;17.95;17.33;;;22.50;99.90;;;;;;5030930;28;20592;-63
2023/08/20 03:57:46;;;;;;;17.58;16.98;;;22.40;99.90;;;;;;5030260;28;20228;-64
2023/08/20 04:00:13;;;;;;;22.77;21.95;;;22.40;99.90;;;;;;5029707;28;20205;-62
2023/08/20 04:02:40;;;;;;;21.85;21.00;;;22.40;99.90;;;;;;5029414;28;20315;-65
2023/08/20 04:05:09;;;;;;;33.20;31.88;;;22.40;99.90;;;;;;5029625;28;20205;-63
2023/08/20 04:07:36;;;;;;;19.33;18.65;;;22.40;99.90;;;;;;5029229;28;20228;-63
2023/08/20 04:10:03;;;;;;;31.17;30.08;;;22.30;99.90;;;;;;5028704;28;20229;-64
2023/08/20 04:12:30;;;;;;;33.95;32.75;;;22.30;99.90;;;;;;5030197;28;20271;-63
2023/08/20 04:14:56;;;;;;;53.88;51.75;;;22.30;99.90;;;;;;5031749;28;20206;-64
2023/08/20 04:17:23;;;;;;;34.22;32.97;;;22.30;99.90;;;;;;5031295;28;20452;-64
2023/08/20 04:19:50;;;;;;;27.48;26.52;;;22.20;99.90;;;;;;5031081;28;20209;-64
2023/08/20 04:22:18;;;;;;;32.90;31.73;;;21.80;99.90;;;;;;5030474;28;20270;-63
2023/08/20 04:24:45;;;;;;;32.35;31.17;;;22.00;99.90;;;;;;5030806;28;20213;-63
2023/08/20 04:27:12;;;;;;;36.33;35.03;;;21.90;99.90;;;;;;5031984;28;20211;-64
2023/08/20 04:29:39;;;;;;;33.53;32.25;;;21.80;99.90;;;;;;5028292;28;20235;-65
2023/08/20 04:32:06;;;;;;;34.33;33.08;;;21.90;99.90;;;;;;5027978;28;20232;-64
2023/08/20 04:34:33;;;;;;;37.95;36.55;;;21.90;99.90;;;;;;5032967;28;20287;-64
2023/08/20 04:37:00;;;;;;;18.67;18.00;;;22.00;99.90;;;;;;5032910;28;20227;-65
2023/08/20 04:39:28;;;;;;;32.35;31.17;;;22.00;99.90;;;;;;5031723;28;20232;-65
2023/08/20 04:41:57;;;;;;;25.40;24.50;;;22.00;99.90;;;;;;5032899;28;20203;-63
2023/08/20 04:44:24;;;;;;;28.13;27.05;;;22.00;99.90;;;;;;5032724;28;20708;-63
2023/08/20 04:46:51;;;;;;;19.65;18.95;;;22.10;99.90;;;;;;5032414;28;20228;-62
2023/08/20 04:49:17;;;;;;;31.63;30.50;;;22.10;99.90;;;;;;5031764;28;20685;-64
2023/08/20 04:51:44;;;;;;;21.77;21.02;;;22.10;99.90;;;;;;5032697;28;20233;-64
2023/08/20 04:54:11;;;;;;;32.17;31.00;;;22.20;99.90;;;;;;5032144;28;20211;-63
2023/08/20 04:56:39;;;;;;;29.50;28.48;;;22.20;99.90;;;;;;5032520;28;20205;-65
2023/08/20 04:59:06;;;;;;;21.02;20.27;;;22.20;99.90;;;;;;5031344;28;20229;-65
2023/08/20 05:01:33;;;;;;;19.27;18.55;;;22.30;99.90;;;;;;5032570;28;20204;-63
2023/08/20 05:03:59;;;;;;;18.30;17.65;;;22.30;99.90;;;;;;5034009;28;20212;-63
2023/08/20 05:06:26;;;;;;;19.42;18.75;;;22.30;99.90;;;;;;5034118;28;20680;-65
2023/08/20 05:08:53;;;;;;;20.13;19.40;;;22.40;99.90;;;;;;5034093;28;20225;-65
2023/08/20 05:11:20;;;;;;;20.05;19.30;;;22.40;99.90;;;;;;5031220;28;20221;-64
2023/08/20 05:13:48;;;;;;;17.45;16.85;;;22.40;99.90;;;;;;5032450;28;20250;-65
2023/08/20 05:16:15;;;;;;;17.02;16.33;;;22.40;99.90;;;;;;5032324;28;20201;-65
2023/08/20 05:18:42;;;;;;;19.02;18.38;;;22.50;99.90;;;;;;5034214;28;20231;-65
2023/08/20 05:21:11;;;;;;;19.98;19.27;;;22.50;99.90;;;;;;5031034;28;20215;-65
2023/08/20 05:23:38;;;;;;;18.48;17.77;;;22.60;99.90;;;;;;5031594;28;20232;-63
2023/08/20 05:26:05;;;;;;;18.60;17.90;;;22.70;99.90;;;;;;5031973;28;20208;-63
2023/08/20 05:28:31;;;;;;;20.05;19.35;;;22.70;99.90;;;;;;5031462;28;20243;-63
2023/08/20 05:31:00;;;;;;;19.25;18.55;;;22.70;99.90;;;;;;5030898;28;20224;-65
2023/08/20 05:33:27;;;;;;;17.83;17.23;;;22.80;99.90;;;;;;5031709;28;20209;-64
2023/08/20 05:35:54;;;;;;;18.17;17.48;;;22.90;99.90;;;;;;5031441;28;20211;-63
2023/08/20 05:38:20;;;;;;;16.15;15.57;;;23.00;99.90;;;;;;5031063;28;20245;-64
2023/08/20 05:40:47;;;;;;;17.85;17.15;;;23.00;99.90;;;;;;5034213;28;20575;-66
2023/08/20 05:43:14;;;;;;;18.27;17.58;;;23.00;99.90;;;;;;5034523;28;20215;-63
2023/08/20 05:45:41;;;;;;;16.80;16.20;;;22.90;99.90;;;;;;5031044;28;20773;-63
2023/08/20 05:48:09;;;;;;;16.73;16.13;;;23.00;99.90;;;;;;5031251;28;20609;-64
2023/08/20 05:50:36;;;;;;;16.98;16.38;;;23.10;99.90;;;;;;5030451;28;20224;-64
2023/08/20 05:53:03;;;;;;;16.92;16.33;;;23.10;99.90;;;;;;5031266;28;20205;-63
2023/08/20 05:55:29;;;;;;;16.65;16.05;;;23.20;99.90;;;;;;5031255;28;20204;-64
2023/08/20 05:57:56;;;;;;;15.82;15.23;;;23.20;99.90;;;;;;5031370;28;20279;-65
2023/08/20 06:00:23;;;;;;;15.27;14.68;;;23.10;99.90;;;;;;5033075;28;20298;-63
2023/08/20 06:02:50;;;;;;;15.60;15.00;;;23.20;99.90;;;;;;5036143;28;20211;-65
2023/08/20 06:05:18;;;;;;;18.95;18.25;;;23.20;99.90;;;;;;5048383;28;20208;-64
2023/08/20 06:07:45;;;;;;;15.00;14.40;;;23.20;99.90;;;;;;5046792;28;20227;-64
2023/08/20 06:10:12;;;;;;;15.18;14.68;;;23.20;99.90;;;;;;5041277;28;20636;-64
2023/08/20 06:12:39;;;;;;;15.27;14.75;;;23.30;99.90;;;;;;5041370;28;20303;-62
2023/08/20 06:15:07;;;;;;;15.80;15.30;;;23.40;99.90;;;;;;5040597;28;20196;-64
2023/08/20 06:17:34;;;;;;;15.48;14.98;;;23.50;99.90;;;;;;5044534;28;20679;-67
2023/08/20 06:20:00;;;;;;;16.92;16.33;;;23.60;99.90;;;;;;5035252;28;20207;-64
2023/08/20 06:22:29;;;;;;;18.02;17.42;;;23.60;99.90;;;;;;5042353;28;20208;-64
2023/08/20 06:24:55;;;;;;;15.55;15.05;;;23.70;99.90;;;;;;5046213;28;20310;-65
2023/08/20 06:27:22;;;;;;;15.27;14.77;;;23.70;99.90;;;;;;5062199;28;20195;-65
2023/08/20 06:29:49;;;;;;;17.10;16.50;;;23.80;99.90;;;;;;5069981;28;20211;-64
2023/08/20 06:32:16;;;;;;;15.60;15.00;;;23.80;99.90;;;;;;5070056;28;20220;-64
2023/08/20 06:34:43;;;;;;;14.35;13.85;;;24.00;99.90;;;;;;5070053;28;20206;-64
2023/08/20 06:37:09;;;;;;;14.60;14.10;;;23.90;99.90;;;;;;5069972;28;20761;-64
2023/08/20 06:39:38;;;;;;;15.75;15.15;;;24.00;99.90;;;;;;5069330;28;20227;-65
2023/08/20 06:42:04;;;;;;;17.25;16.65;;;24.20;99.90;;;;;;5069996;28;20677;-65
2023/08/20 06:44:31;;;;;;;16.77;16.17;;;24.30;99.90;;;;;;5070469;28;20203;-64
2023/08/20 06:46:58;;;;;;;17.95;17.35;;;24.40;99.90;;;;;;5069892;28;20642;-64
2023/08/20 06:49:25;;;;;;;18.13;17.48;;;24.60;99.90;;;;;;5069299;28;20235;-63
2023/08/20 06:51:52;;;;;;;17.00;16.40;;;24.60;99.90;;;;;;5069777;28;20231;-64
2023/08/20 06:54:18;;;;;;;15.85;15.35;;;24.60;99.90;;;;;;5069641;28;20715;-64
2023/08/20 06:56:47;;;;;;;17.80;17.10;;;24.70;99.90;;;;;;5071585;28;20229;-64
2023/08/20 06:59:13;;;;;;;18.48;17.80;;;24.80;99.90;;;;;;5070733;28;20319;-65
2023/08/20 07:01:40;;;;;;;19.27;18.58;;;24.90;99.90;;;;;;5071315;28;20207;-66
2023/08/20 07:04:07;;;;;;;16.83;16.10;;;25.20;99.90;;;;;;5070800;28;20207;-65
2023/08/20 07:06:34;;;;;;;18.35;17.75;;;25.30;99.90;;;;;;5070126;28;20641;-64
2023/08/20 07:09:03;;;;;;;17.00;16.40;;;25.50;99.90;;;;;;5069739;28;20253;-66
2023/08/20 07:11:30;;;;;;;18.73;18.00;;;25.60;99.90;;;;;;5069852;28;20673;-64
2023/08/20 07:13:58;;;;;;;21.30;20.52;;;25.80;99.90;;;;;;5071668;28;20245;-63
2023/08/20 07:16:25;;;;;;;22.70;21.90;;;26.00;99.90;;;;;;5071086;28;20727;-64
2023/08/20 07:18:52;;;;;;;22.52;21.73;;;26.10;99.90;;;;;;5070445;28;20227;-62
2023/08/20 07:21:19;;;;;;;21.23;20.48;;;26.10;99.90;;;;;;5069580;28;20203;-65
2023/08/20 07:23:46;;;;;;;24.10;23.20;;;26.30;99.90;;;;;;5069282;28;20211;-65
2023/08/20 07:26:13;;;;;;;23.08;22.27;;;26.50;99.90;;;;;;5069701;28;20570;-64
2023/08/20 07:28:59;;;;;;;20.85;20.10;;;26.70;99.90;;;;;;5070233;28;20261;-65
2023/08/20 07:31:29;;;;;;;25.45;24.55;;;26.70;99.90;;;;;;5070913;28;20227;-65
2023/08/20 07:33:57;;;;;;;21.70;20.90;;;26.50;99.90;;;;;;5071902;28;20592;-64
2023/08/20 07:36:26;;;;;;;22.13;21.33;;;26.30;99.90;;;;;;5070847;28;20214;-64
2023/08/20 07:38:54;;;;;;;20.95;20.20;;;26.10;99.90;;;;;;5069302;28;20231;-64
2023/08/20 07:41:21;;;;;;;20.77;20.08;;;26.20;99.90;;;;;;5072828;28;20205;-65
2023/08/20 07:43:48;;;;;;;21.08;20.27;;;26.40;99.90;;;;;;5069632;28;20306;-66
2023/08/20 07:46:16;;;;;;;20.63;19.85;;;26.60;99.90;;;;;;5070449;28;20202;-64
2023/08/20 07:48:44;;;;;;;19.90;19.20;;;26.70;99.90;;;;;;5070066;28;20230;-63
2023/08/20 07:51:11;;;;;;;21.65;20.90;;;26.50;99.90;;;;;;5069236;28;20225;-64
2023/08/20 07:53:38;;;;;;;21.83;21.02;;;26.50;99.90;;;;;;5070512;28;20203;-65
2023/08/20 07:56:05;;;;;;;20.35;19.52;;;26.60;99.90;;;;;;5070802;28;20209;-63
2023/08/20 07:58:32;;;;;;;19.73;19.02;;;26.70;99.90;;;;;;5069968;28;20231;-63
2023/08/20 08:00:59;;;;;;;19.33;18.45;;;26.80;99.90;;;;;;5071893;28;20286;-66
2023/08/20 08:03:27;;;;;;;17.92;17.33;;;26.80;99.90;;;;;;5071731;28;20214;-64
2023/08/20 08:05:55;;;;;;;18.67;17.97;;;27.00;99.90;;;;;;5073337;28;20206;-65
2023/08/20 08:08:23;;;;;;;17.85;17.15;;;27.10;99.90;;;;;;5074668;28;20219;-66
2023/08/20 08:10:50;;;;;;;18.50;17.88;;;27.10;99.90;;;;;;5073872;28;20203;-65
2023/08/20 08:13:21;;;;;;;18.65;17.95;;;27.20;99.90;;;;;;5074088;28;20659;-64
2023/08/20 08:15:47;;;;;;;22.15;21.35;;;27.40;99.90;;;;;;5073254;28;20702;-65
2023/08/20 08:18:15;;;;;;;18.25;17.60;;;27.40;99.90;;;;;;5073341;28;20314;-63
2023/08/20 08:20:42;;;;;;;22.42;21.52;;;27.30;99.90;;;;;;5073089;28;20203;-65
2023/08/20 08:23:10;;;;;;;18.58;17.88;;;27.30;99.90;;;;;;5073651;28;20266;-63
2023/08/20 08:25:37;;;;;;;17.08;16.48;;;27.40;99.90;;;;;;5073104;28;20207;-64
2023/08/20 08:28:04;;;;;;;20.98;20.17;;;27.50;99.90;;;;;;5072833;28;20267;-65
2023/08/20 08:30:31;;;;;;;22.80;21.98;;;27.60;99.90;;;;;;5074112;28;20207;-67
2023/08/20 08:32:59;;;;;;;18.90;18.23;;;27.50;99.90;;;;;;5073223;28;20319;-65
2023/08/20 08:35:25;;;;;;;18.00;17.40;;;27.70;99.90;;;;;;5071502;28;20606;-65
2023/08/20 08:40:30;;;;;;;18.38;17.77;;;28.10;99.90;;;;;;5071759;28;20207;-68
2023/08/20 08:42:57;;;;;;;16.58;15.98;;;28.20;99.90;;;;;;5073354;28;20276;-67
2023/08/20 08:45:25;;;;;;;16.13;15.52;;;28.20;99.90;;;;;;5073221;28;20207;-66
2023/08/20 08:47:54;;;;;;;16.50;15.90;;;28.30;99.90;;;;;;5072943;28;20514;-66
2023/08/20 08:50:22;;;;;;;16.10;15.50;;;28.40;99.90;;;;;;5072773;28;20294;-66
2023/08/20 08:52:51;;;;;;;16.33;15.73;;;28.50;99.90;;;;;;5073718;28;20235;-66
2023/08/20 08:55:18;;;;;;;21.85;21.05;;;28.50;99.90;;;;;;5073086;28;20696;-67
2023/08/20 08:57:46;;;;;;;18.50;17.85;;;28.60;99.90;;;;;;5072883;28;20214;-67
2023/08/20 09:00:14;;;;;;;21.30;20.50;;;28.60;99.90;;;;;;5072397;28;20219;-67
2023/08/20 09:02:41;;;;;;;17.30;16.70;;;28.60;99.90;;;;;;5076575;28;20286;-66
2023/08/20 09:05:08;;;;;;;18.60;17.90;;;28.50;99.90;;;;;;5046324;28;20199;-66
2023/08/20 09:07:35;;;;;;;18.85;18.15;;;28.40;99.90;;;;;;5041413;28;20661;-67
2023/08/20 09:10:02;;;;;;;40.83;38.90;;;28.30;99.90;;;;;;5042975;28;20311;-65
2023/08/20 09:12:35;;;;;;;19.38;18.67;;;28.30;99.90;;;;;;5045762;28;20712;-65
2023/08/20 09:15:03;;;;;;;21.25;20.45;;;28.40;99.90;;;;;;5042324;28;20299;-66
2023/08/20 09:17:31;;;;;;;22.20;21.40;;;28.50;99.90;;;;;;5039065;28;20207;-66
2023/08/20 09:19:58;;;;;;;23.33;22.52;;;28.50;99.90;;;;;;5033832;28;20793;-66
2023/08/20 09:22:25;;;;;;;27.13;26.15;;;28.70;99.90;;;;;;5045698;28;20200;-66
2023/08/20 09:24:56;;;;;;;27.67;26.67;;;28.90;99.90;;;;;;5041467;28;20204;-67
2023/08/20 09:27:23;;;;;;;28.17;27.17;;;29.10;99.90;;;;;;5041722;28;20211;-65
2023/08/20 09:29:52;;;;;;;29.20;28.20;;;29.30;99.90;;;;;;5037839;28;20668;-67
2023/08/20 09:32:21;;;;;;;23.98;23.08;;;29.40;99.90;;;;;;5039125;28;20220;-66
2023/08/20 09:34:49;;;;;;;23.30;22.50;;;29.50;99.90;;;;;;5040769;28;20287;-66
2023/08/20 09:37:17;;;;;;;22.60;21.67;;;29.60;99.90;;;;;;5054283;28;20235;-67
2023/08/20 09:39:44;;;;;;;29.42;28.33;;;29.60;99.90;;;;;;5045064;28;20236;-67
2023/08/20 09:42:12;;;;;;;29.55;28.55;;;29.80;99.90;;;;;;5040835;28;20202;-66
2023/08/20 09:44:40;;;;;;;22.90;22.10;;;30.00;99.90;;;;;;5041411;28;20203;-65
2023/08/20 09:47:08;;;;;;;24.33;23.45;;;30.10;99.90;;;;;;5040499;28;20204;-65
2023/08/20 09:49:40;;;;;;;26.42;25.52;;;30.30;99.90;;;;;;5038719;28;20599;-66
2023/08/20 09:52:08;;;;;;;23.77;22.92;;;30.40;99.90;;;;;;5040307;28;20315;-66
2023/08/20 09:55:00;;;;;;;21.40;20.60;;;30.30;99.90;;;;;;5039614;28;20305;-65
2023/08/20 09:57:35;;;;;;;24.63;23.63;;;30.30;99.90;;;;;;5039851;28;20201;-65
2023/08/20 10:00:05;;;;;;;22.42;21.65;;;30.50;99.90;;;;;;5038624;28;20224;-65
2023/08/20 10:02:33;;;;;;;28.75;27.58;;;30.80;99.90;;;;;;5039975;28;20196;-67
2023/08/20 10:05:03;;;;;;;19.98;19.27;;;30.90;99.90;;;;;;5039138;28;20319;-66
2023/08/20 10:07:32;;;;;;;19.48;18.77;;;30.80;99.90;;;;;;5039855;28;20242;-66
2023/08/20 10:10:00;;;;;;;22.98;22.17;;;30.70;99.90;;;;;;5037892;28;20227;-67
2023/08/20 10:12:27;;;;;;;17.63;17.02;;;30.80;99.90;;;;;;5041074;28;20313;-66
2023/08/20 10:14:55;;;;;;;20.05;19.35;;;31.10;99.90;;;;;;5040383;28;20208;-66
2023/08/20 10:17:23;;;;;;;18.25;17.55;;;31.20;99.90;;;;;;5039169;28;20208;-67
2023/08/20 10:19:53;;;;;;;18.02;17.40;;;31.30;99.90;;;;;;5047605;28;20348;-67
2023/08/20 10:22:21;;;;;;;20.95;20.15;;;31.30;99.90;;;;;;5037623;28;20196;-66
2023/08/20 10:24:50;;;;;;;21.70;20.92;;;31.00;99.90;;;;;;5055222;28;20276;-66
2023/08/20 10:27:27;;;;;;;18.05;17.35;;;30.80;99.90;;;;;;5050906;28;20688;-66
2023/08/20 10:29:53;;;;;;;20.77;20.02;;;31.00;99.90;;;;;;5046638;28;20724;-67
2023/08/20 10:32:21;;;;;;;16.90;16.30;;;30.90;99.90;;;;;;5037804;28;20821;-67
2023/08/20 10:34:52;;;;;;;18.80;18.10;;;31.10;99.90;;;;;;5046255;28;20508;-65
2023/08/20 10:37:28;;;;;;;18.77;18.08;;;31.30;99.90;;;;;;5049409;28;20219;-65
2023/08/20 10:39:56;;;;;;;17.52;16.92;;;31.30;99.90;;;;;;5043904;28;20528;-67
2023/08/20 10:42:26;;;;;;;17.40;16.80;;;31.20;99.90;;;;;;5048568;28;20215;-65
2023/08/20 10:45:02;;;;;;;27.42;26.23;;;31.10;99.90;;;;;;5045633;28;20238;-67
2023/08/20 10:47:43;;;;;;;20.15;19.35;;;31.00;99.90;;;;;;5048531;28;20202;-67
2023/08/20 10:50:11;;;;;;;16.35;15.75;;;31.00;99.90;;;;;;5048641;28;20228;-66
2023/08/20 10:52:50;;;;;;;17.15;16.55;;;30.90;99.90;;;;;;5085766;28;20548;-65
2023/08/20 10:55:23;;;;;;;17.15;16.55;;;30.70;99.90;;;;;;5085977;28;20207;-67
2023/08/20 10:57:56;;;;;;;18.80;18.10;;;30.80;99.90;;;;;;5086521;28;20214;-64
2023/08/20 11:00:23;;;;;;;20.27;19.48;;;30.90;99.90;;;;;;5064317;28;20210;-67
2023/08/20 11:02:51;;;;;;;17.83;17.13;;;31.00;99.90;;;;;;5064347;28;20673;-64
2023/08/20 11:05:18;;;;;;;16.58;15.98;;;31.20;99.90;;;;;;5065811;28;20210;-64
2023/08/20 11:07:47;;;;;;;18.17;17.58;;;31.40;99.90;;;;;;5066401;28;20212;-65
2023/08/20 11:10:17;;;;;;;18.85;18.15;;;31.60;99.90;;;;;;5065082;28;20562;-68
2023/08/20 11:12:44;;;;;;;18.30;17.67;;;31.90;99.90;;;;;;5065701;28;20227;-65
2023/08/20 11:15:12;;;;;;;19.35;18.65;;;32.10;99.90;;;;;;5065194;28;20210;-64
2023/08/20 11:17:43;;;;;;;19.88;19.15;;;32.20;99.90;;;;;;5065588;28;20211;-67
2023/08/20 11:20:12;;;;;;;19.85;19.15;;;32.40;99.90;;;;;;5064629;28;20231;-65
2023/08/20 11:22:39;;;;;;;20.35;19.55;;;32.40;99.90;;;;;;5065103;28;20203;-66
2023/08/20 11:25:06;;;;;;;30.35;28.98;;;32.50;99.90;;;;;;5065599;28;20207;-65
2023/08/20 11:27:34;;;;;;;43.70;41.53;;;32.40;99.90;;;;;;5065770;28;20203;-65
2023/08/20 11:30:03;;;;;;;21.63;20.83;;;32.10;99.90;;;;;;5063270;28;20231;-64
2023/08/20 11:32:31;;;;;;;20.38;19.67;;;31.90;99.90;;;;;;5063633;28;20261;-67
2023/08/20 11:34:58;;;;;;;20.83;20.13;;;31.90;99.90;;;;;;5063600;28;20322;-63
2023/08/20 11:37:25;;;;;;;19.67;18.98;;;32.00;99.90;;;;;;5063845;28;20301;-65
2023/08/20 11:39:52;;;;;;;19.05;18.35;;;32.20;99.90;;;;;;5061129;28;20237;-68
2023/08/20 11:42:19;;;;;;;18.95;18.25;;;32.30;99.90;;;;;;5064209;28;20584;-64
2023/08/20 11:44:48;;;;;;;29.20;27.95;;;32.40;99.90;;;;;;5063688;28;20233;-66
2023/08/20 11:47:16;;;;;;;19.38;18.67;;;32.50;99.90;;;;;;5063828;28;20214;-66
2023/08/20 11:49:43;;;;;;;42.40;39.90;;;32.50;99.90;;;;;;5063112;28;20226;-68
2023/08/20 11:52:10;;;;;;;19.63;18.92;;;32.30;99.90;;;;;;5065093;28;20682;-65
2023/08/20 11:54:38;;;;;;;17.23;16.63;;;32.00;99.90;;;;;;5064766;28;20207;-65
2023/08/20 11:57:05;;;;;;;22.70;21.80;;;32.00;99.90;;;;;;5064066;28;20203;-66
2023/08/20 11:59:33;;;;;;;19.80;19.08;;;32.30;99.90;;;;;;5060728;28;20292;-66
2023/08/20 12:02:02;;;;;;;17.85;17.25;;;32.50;99.90;;;;;;5063725;28;20205;-67
2023/08/20 12:04:31;;;;;;;16.30;15.70;;;32.40;99.90;;;;;;5051444;28;20216;-66
2023/08/20 12:07:05;;;;;;;16.50;15.90;;;32.60;99.90;;;;;;5053133;28;20208;-66
2023/08/20 12:09:33;;;;;;;16.90;16.20;;;32.80;99.90;;;;;;5052205;28;20231;-63
2023/08/20 12:12:00;;;;;;;15.90;15.30;;;32.90;99.90;;;;;;5056419;28;20220;-66
2023/08/20 12:14:27;;;;;;;15.38;14.88;;;33.00;99.90;;;;;;5054850;28;20222;-65
2023/08/20 12:16:55;;;;;;;17.02;16.40;;;33.10;99.90;;;;;;5053261;28;20203;-65
2023/08/20 12:19:23;;;;;;;15.90;15.30;;;33.10;99.90;;;;;;5050344;28;20236;-67
2023/08/20 12:21:50;;;;;;;15.30;14.80;;;33.00;99.90;;;;;;5050809;28;20215;-66
2023/08/20 12:24:18;;;;;;;43.47;40.80;;;33.20;99.90;;;;;;5051040;28;20204;-66
2023/08/20 12:26:45;;;;;;;16.25;15.65;;;33.30;99.90;;;;;;5051027;28;20713;-67
2023/08/20 12:29:12;;;;;;;16.90;16.30;;;33.00;99.90;;;;;;5049628;28;20373;-65
2023/08/20 12:31:40;;;;;;;15.93;15.15;;;33.00;99.90;;;;;;5050139;28;20219;-66
2023/08/20 12:34:08;;;;;;;16.52;15.93;;;33.10;99.90;;;;;;5050541;28;20589;-65